sensor_id;sensor_type;location;lat;lon;timestamp;temperature;humidity
52295;DHT22;38243;53.212;6.574;2022-10-31T00:00:15;20.50;99.90
52295;DHT22;38243;53.212;6.574;2022-10-31T00:02:41;20.50;99.90
52295;DHT22;38243;53.212;6.574;2022-10-31T00:05:07;20.50;99.90
52295;DHT22;38243;53.212;6.574;2022-10-31T00:07:32;20.50;99.90
52295;DHT22;38243;53.212;6.574;2022-10-31T00:09:58;20.50;99.90
52295;DHT22;38243;53.212;6.574;2022-10-31T00:12:23;20.50;99.90
52295;DHT22;38243;53.212;6.574;2022-10-31T00:14:49;20.50;99.90
52295;DHT22;38243;53.212;6.574;2022-10-31T00:17:15;20.40;99.90
52295;DHT22;38243;53.212;6.574;2022-10-31T00:19:40;20.50;99.90
52295;DHT22;38243;53.212;6.574;2022-10-31T00:22:06;20.50;99.90
52295;DHT22;38243;53.212;6.574;2022-10-31T00:24:31;20.40;99.90
52295;DHT22;38243;53.212;6.574;2022-10-31T00:26:57;20.50;99.90
52295;DHT22;38243;53.212;6.574;2022-10-31T00:29:22;20.40;99.90
52295;DHT22;38243;53.212;6.574;2022-10-31T00:31:48;20.50;99.90
52295;DHT22;38243;53.212;6.574;2022-10-31T00:34:13;20.50;99.90
52295;DHT22;38243;53.212;6.574;2022-10-31T00:36:39;20.50;99.90
52295;DHT22;38243;53.212;6.574;2022-10-31T00:39:05;20.50;99.90
52295;DHT22;38243;53.212;6.574;2022-10-31T00:41:30;20.50;99.90
52295;DHT22;38243;53.212;6.574;2022-10-31T00:43:56;20.40;99.90
52295;DHT22;38243;53.212;6.574;2022-10-31T00:46:21;20.40;99.90
52295;DHT22;38243;53.212;6.574;2022-10-31T00:48:47;20.40;99.90
52295;DHT22;38243;53.212;6.574;2022-10-31T00:51:13;20.40;99.90
52295;DHT22;38243;53.212;6.574;2022-10-31T00:53:38;20.40;99.90
52295;DHT22;38243;53.212;6.574;2022-10-31T00:56:04;20.40;99.90
52295;DHT22;38243;53.212;6.574;2022-10-31T00:58:30;20.40;99.90
52295;DHT22;38243;53.212;6.574;2022-10-31T01:00:55;20.40;99.90
52295;DHT22;38243;53.212;6.574;2022-10-31T01:03:22;20.40;99.90
52295;DHT22;38243;53.212;6.574;2022-10-31T01:08:22;20.40;99.90
52295;DHT22;38243;53.212;6.574;2022-10-31T01:10:57;20.40;99.90
52295;DHT22;38243;53.212;6.574;2022-10-31T01:13:23;20.40;99.90
52295;DHT22;38243;53.212;6.574;2022-10-31T01:15:53;20.40;99.90
52295;DHT22;38243;53.212;6.574;2022-10-31T01:18:18;20.40;99.90
52295;DHT22;38243;53.212;6.574;2022-10-31T01:20:44;20.40;99.90
52295;DHT22;38243;53.212;6.574;2022-10-31T01:23:10;20.30;99.90
52295;DHT22;38243;53.212;6.574;2022-10-31T01:25:35;20.40;99.90
52295;DHT22;38243;53.212;6.574;2022-10-31T01:28:01;20.40;99.90
52295;DHT22;38243;53.212;6.574;2022-10-31T01:30:27;20.40;99.90
52295;DHT22;38243;53.212;6.574;2022-10-31T01:32:52;20.30;99.90
52295;DHT22;38243;53.212;6.574;2022-10-31T01:35:18;20.40;99.90
52295;DHT22;38243;53.212;6.574;2022-10-31T01:37:43;20.40;99.90
52295;DHT22;38243;53.212;6.574;2022-10-31T01:40:09;20.40;99.90
52295;DHT22;38243;53.212;6.574;2022-10-31T01:42:35;20.40;99.90
52295;DHT22;38243;53.212;6.574;2022-10-31T01:45:01;20.40;99.90
52295;DHT22;38243;53.212;6.574;2022-10-31T01:47:30;20.30;99.90
52295;DHT22;38243;53.212;6.574;2022-10-31T01:49:57;20.30;99.90
52295;DHT22;38243;53.212;6.574;2022-10-31T01:54:52;20.30;99.90
52295;DHT22;38243;53.212;6.574;2022-10-31T01:57:19;20.30;99.90
52295;DHT22;38243;53.212;6.574;2022-10-31T01:59:48;20.30;99.90
52295;DHT22;38243;53.212;6.574;2022-10-31T02:02:15;20.30;99.90
52295;DHT22;38243;53.212;6.574;2022-10-31T02:04:41;20.30;99.90
52295;DHT22;38243;53.212;6.574;2022-10-31T02:07:14;20.30;99.90
52295;DHT22;38243;53.212;6.574;2022-10-31T02:09:41;20.30;99.90
52295;DHT22;38243;53.212;6.574;2022-10-31T02:12:09;20.30;99.90
52295;DHT22;38243;53.212;6.574;2022-10-31T02:14:35;20.30;99.90
52295;DHT22;38243;53.212;6.574;2022-10-31T02:17:01;20.30;99.90
52295;DHT22;38243;53.212;6.574;2022-10-31T02:19:32;20.30;99.90
52295;DHT22;38243;53.212;6.574;2022-10-31T02:22:12;20.30;99.90
52295;DHT22;38243;53.212;6.574;2022-10-31T02:40:22;20.20;99.90
52295;DHT22;38243;53.212;6.574;2022-10-31T02:43:05;20.20;99.90
52295;DHT22;38243;53.212;6.574;2022-10-31T02:45:53;20.20;99.90
52295;DHT22;38243;53.212;6.574;2022-10-31T02:48:27;20.20;99.90
52295;DHT22;38243;53.212;6.574;2022-10-31T02:50:56;20.20;99.90
52295;DHT22;38243;53.212;6.574;2022-10-31T02:53:23;20.20;99.90
52295;DHT22;38243;53.212;6.574;2022-10-31T02:55:50;20.20;99.90
52295;DHT22;38243;53.212;6.574;2022-10-31T02:58:17;20.20;99.90
52295;DHT22;38243;53.212;6.574;2022-10-31T03:03:22;20.20;99.90
52295;DHT22;38243;53.212;6.574;2022-10-31T03:08:22;20.20;99.90
52295;DHT22;38243;53.212;6.574;2022-10-31T03:13:26;20.20;99.90
52295;DHT22;38243;53.212;6.574;2022-10-31T03:15:56;20.10;99.90
52295;DHT22;38243;53.212;6.574;2022-10-31T03:18:37;20.20;99.90
52295;DHT22;38243;53.212;6.574;2022-10-31T03:21:05;20.20;99.90
52295;DHT22;38243;53.212;6.574;2022-10-31T03:23:34;20.20;99.90
52295;DHT22;38243;53.212;6.574;2022-10-31T03:26:01;20.20;99.90
52295;DHT22;38243;53.212;6.574;2022-10-31T03:28:30;20.10;99.90
52295;DHT22;38243;53.212;6.574;2022-10-31T03:30:58;20.20;99.90
52295;DHT22;38243;53.212;6.574;2022-10-31T03:33:26;20.10;99.90
52295;DHT22;38243;53.212;6.574;2022-10-31T03:35:53;20.10;99.90
52295;DHT22;38243;53.212;6.574;2022-10-31T03:38:21;20.10;99.90
52295;DHT22;38243;53.212;6.574;2022-10-31T03:40:47;20.10;99.90
52295;DHT22;38243;53.212;6.574;2022-10-31T03:43:15;20.10;99.90
52295;DHT22;38243;53.212;6.574;2022-10-31T03:45:43;20.10;99.90
52295;DHT22;38243;53.212;6.574;2022-10-31T03:48:10;20.10;99.90
52295;DHT22;38243;53.212;6.574;2022-10-31T03:51:19;20.10;99.90
52295;DHT22;38243;53.212;6.574;2022-10-31T03:56:09;20.10;99.90
52295;DHT22;38243;53.212;6.574;2022-10-31T03:58:36;20.10;99.90
52295;DHT22;38243;53.212;6.574;2022-10-31T04:01:05;20.10;99.90
52295;DHT22;38243;53.212;6.574;2022-10-31T04:03:32;20.10;99.90
52295;DHT22;38243;53.212;6.574;2022-10-31T04:06:01;20.10;99.90
52295;DHT22;38243;53.212;6.574;2022-10-31T04:08:28;20.10;99.90
52295;DHT22;38243;53.212;6.574;2022-10-31T04:10:56;20.10;99.90
52295;DHT22;38243;53.212;6.574;2022-10-31T04:13:24;20.00;99.90
52295;DHT22;38243;53.212;6.574;2022-10-31T04:15:51;20.10;99.90
52295;DHT22;38243;53.212;6.574;2022-10-31T04:18:17;20.00;99.90
52295;DHT22;38243;53.212;6.574;2022-10-31T04:20:43;20.00;99.90
52295;DHT22;38243;53.212;6.574;2022-10-31T04:23:19;20.00;99.90
52295;DHT22;38243;53.212;6.574;2022-10-31T04:25:45;20.00;99.90
52295;DHT22;38243;53.212;6.574;2022-10-31T04:28:10;20.00;99.90
52295;DHT22;38243;53.212;6.574;2022-10-31T04:30:36;20.00;99.90
52295;DHT22;38243;53.212;6.574;2022-10-31T04:33:01;20.00;99.90
52295;DHT22;38243;53.212;6.574;2022-10-31T04:35:27;20.00;99.90
52295;DHT22;38243;53.212;6.574;2022-10-31T04:37:52;20.00;99.90
52295;DHT22;38243;53.212;6.574;2022-10-31T04:40:18;20.00;99.90
52295;DHT22;38243;53.212;6.574;2022-10-31T04:42:43;20.00;99.90
52295;DHT22;38243;53.212;6.574;2022-10-31T04:45:09;20.00;99.90
52295;DHT22;38243;53.212;6.574;2022-10-31T04:47:35;20.10;99.90
52295;DHT22;38243;53.212;6.574;2022-10-31T04:50:01;20.00;99.90
52295;DHT22;38243;53.212;6.574;2022-10-31T04:52:26;20.00;99.90
52295;DHT22;38243;53.212;6.574;2022-10-31T04:54:52;20.00;99.90
52295;DHT22;38243;53.212;6.574;2022-10-31T04:57:17;20.00;99.90
52295;DHT22;38243;53.212;6.574;2022-10-31T04:59:43;20.00;99.90
52295;DHT22;38243;53.212;6.574;2022-10-31T05:02:08;20.00;99.90
52295;DHT22;38243;53.212;6.574;2022-10-31T05:04:34;20.00;99.90
52295;DHT22;38243;53.212;6.574;2022-10-31T05:07:00;20.00;99.90
52295;DHT22;38243;53.212;6.574;2022-10-31T05:09:25;20.00;99.90
52295;DHT22;38243;53.212;6.574;2022-10-31T05:11:51;20.00;99.90
52295;DHT22;38243;53.212;6.574;2022-10-31T05:14:16;20.00;99.90
52295;DHT22;38243;53.212;6.574;2022-10-31T05:16:42;20.00;99.90
52295;DHT22;38243;53.212;6.574;2022-10-31T05:19:07;20.00;99.90
52295;DHT22;38243;53.212;6.574;2022-10-31T05:21:33;20.00;99.90
52295;DHT22;38243;53.212;6.574;2022-10-31T05:23:58;20.00;99.90
52295;DHT22;38243;53.212;6.574;2022-10-31T05:26:24;20.00;99.90
52295;DHT22;38243;53.212;6.574;2022-10-31T05:28:50;20.00;99.90
52295;DHT22;38243;53.212;6.574;2022-10-31T05:31:15;20.00;99.90
52295;DHT22;38243;53.212;6.574;2022-10-31T05:33:41;20.00;99.90
52295;DHT22;38243;53.212;6.574;2022-10-31T05:36:06;20.00;99.90
52295;DHT22;38243;53.212;6.574;2022-10-31T05:38:32;20.00;99.90
52295;DHT22;38243;53.212;6.574;2022-10-31T05:40:58;20.00;99.90
52295;DHT22;38243;53.212;6.574;2022-10-31T05:43:25;20.00;99.90
52295;DHT22;38243;53.212;6.574;2022-10-31T05:45:54;20.00;99.90
52295;DHT22;38243;53.212;6.574;2022-10-31T05:48:20;20.00;99.90
52295;DHT22;38243;53.212;6.574;2022-10-31T05:50:46;20.00;99.90
52295;DHT22;38243;53.212;6.574;2022-10-31T05:53:12;20.00;99.90
52295;DHT22;38243;53.212;6.574;2022-10-31T05:55:38;20.00;99.90
52295;DHT22;38243;53.212;6.574;2022-10-31T05:58:06;20.00;99.90
52295;DHT22;38243;53.212;6.574;2022-10-31T06:00:31;20.00;99.90
52295;DHT22;38243;53.212;6.574;2022-10-31T06:02:59;20.00;99.90
52295;DHT22;38243;53.212;6.574;2022-10-31T06:05:25;20.00;99.90
52295;DHT22;38243;53.212;6.574;2022-10-31T06:07:51;20.00;99.90
52295;DHT22;38243;53.212;6.574;2022-10-31T06:10:16;20.00;99.90
52295;DHT22;38243;53.212;6.574;2022-10-31T06:12:44;20.00;99.90
52295;DHT22;38243;53.212;6.574;2022-10-31T06:15:10;19.80;99.90
52295;DHT22;38243;53.212;6.574;2022-10-31T06:17:36;19.90;99.90
52295;DHT22;38243;53.212;6.574;2022-10-31T06:20:01;19.90;99.90
52295;DHT22;38243;53.212;6.574;2022-10-31T06:22:27;19.90;99.90
52295;DHT22;38243;53.212;6.574;2022-10-31T06:24:53;19.90;99.90
52295;DHT22;38243;53.212;6.574;2022-10-31T06:27:19;20.00;99.90
52295;DHT22;38243;53.212;6.574;2022-10-31T06:29:45;20.00;99.90
52295;DHT22;38243;53.212;6.574;2022-10-31T06:32:13;20.00;99.90
52295;DHT22;38243;53.212;6.574;2022-10-31T06:34:39;20.10;99.90
52295;DHT22;38243;53.212;6.574;2022-10-31T06:37:06;20.10;99.90
52295;DHT22;38243;53.212;6.574;2022-10-31T06:39:32;20.10;99.90
52295;DHT22;38243;53.212;6.574;2022-10-31T06:41:57;20.10;99.90
52295;DHT22;38243;53.212;6.574;2022-10-31T06:44:23;20.10;99.90
52295;DHT22;38243;53.212;6.574;2022-10-31T06:46:49;20.10;99.90
52295;DHT22;38243;53.212;6.574;2022-10-31T06:49:14;20.10;99.90
52295;DHT22;38243;53.212;6.574;2022-10-31T06:51:40;20.10;99.90
52295;DHT22;38243;53.212;6.574;2022-10-31T06:54:05;20.10;99.90
52295;DHT22;38243;53.212;6.574;2022-10-31T06:56:31;20.20;99.90
52295;DHT22;38243;53.212;6.574;2022-10-31T06:58:56;20.20;99.90
52295;DHT22;38243;53.212;6.574;2022-10-31T07:01:22;20.20;99.90
52295;DHT22;38243;53.212;6.574;2022-10-31T07:03:48;20.20;99.90
52295;DHT22;38243;53.212;6.574;2022-10-31T07:06:13;20.20;99.90
52295;DHT22;38243;53.212;6.574;2022-10-31T07:08:39;20.20;99.90
52295;DHT22;38243;53.212;6.574;2022-10-31T07:11:05;20.20;99.90
52295;DHT22;38243;53.212;6.574;2022-10-31T07:13:30;20.30;99.90
52295;DHT22;38243;53.212;6.574;2022-10-31T07:15:59;20.30;99.90
52295;DHT22;38243;53.212;6.574;2022-10-31T07:18:25;20.30;99.90
52295;DHT22;38243;53.212;6.574;2022-10-31T07:20:51;20.30;99.90
52295;DHT22;38243;53.212;6.574;2022-10-31T07:23:16;20.30;99.90
52295;DHT22;38243;53.212;6.574;2022-10-31T07:25:42;20.30;99.90
52295;DHT22;38243;53.212;6.574;2022-10-31T07:28:08;20.30;99.90
52295;DHT22;38243;53.212;6.574;2022-10-31T07:30:34;20.30;99.90
52295;DHT22;38243;53.212;6.574;2022-10-31T07:32:59;20.30;99.90
52295;DHT22;38243;53.212;6.574;2022-10-31T07:35:26;20.40;99.90
52295;DHT22;38243;53.212;6.574;2022-10-31T07:37:52;20.40;99.90
52295;DHT22;38243;53.212;6.574;2022-10-31T07:40:17;20.40;99.90
52295;DHT22;38243;53.212;6.574;2022-10-31T07:42:45;20.40;99.90
52295;DHT22;38243;53.212;6.574;2022-10-31T07:45:12;20.50;99.90
52295;DHT22;38243;53.212;6.574;2022-10-31T07:50:10;20.50;99.90
52295;DHT22;38243;53.212;6.574;2022-10-31T07:52:36;20.50;99.90
52295;DHT22;38243;53.212;6.574;2022-10-31T07:55:01;20.60;99.90
52295;DHT22;38243;53.212;6.574;2022-10-31T07:57:27;20.60;99.90
52295;DHT22;38243;53.212;6.574;2022-10-31T07:59:53;20.60;99.90
52295;DHT22;38243;53.212;6.574;2022-10-31T08:02:18;20.60;99.90
52295;DHT22;38243;53.212;6.574;2022-10-31T08:04:44;20.60;99.90
52295;DHT22;38243;53.212;6.574;2022-10-31T08:07:09;20.70;99.90
52295;DHT22;38243;53.212;6.574;2022-10-31T08:09:35;20.70;99.90
52295;DHT22;38243;53.212;6.574;2022-10-31T08:12:01;20.70;99.90
52295;DHT22;38243;53.212;6.574;2022-10-31T08:14:27;20.70;99.90
52295;DHT22;38243;53.212;6.574;2022-10-31T08:16:53;20.70;99.90
52295;DHT22;38243;53.212;6.574;2022-10-31T08:19:18;20.70;99.90
52295;DHT22;38243;53.212;6.574;2022-10-31T08:21:44;20.70;99.90
52295;DHT22;38243;53.212;6.574;2022-10-31T08:24:09;20.70;99.90
52295;DHT22;38243;53.212;6.574;2022-10-31T08:26:35;20.70;99.90
52295;DHT22;38243;53.212;6.574;2022-10-31T08:29:00;20.80;99.90
52295;DHT22;38243;53.212;6.574;2022-10-31T08:31:27;20.70;99.90
52295;DHT22;38243;53.212;6.574;2022-10-31T08:33:53;20.80;99.90
52295;DHT22;38243;53.212;6.574;2022-10-31T08:36:19;20.80;99.90
52295;DHT22;38243;53.212;6.574;2022-10-31T08:38:45;20.80;99.90
52295;DHT22;38243;53.212;6.574;2022-10-31T08:41:11;20.80;99.90
52295;DHT22;38243;53.212;6.574;2022-10-31T08:43:37;20.80;99.90
52295;DHT22;38243;53.212;6.574;2022-10-31T08:46:02;20.80;99.90
52295;DHT22;38243;53.212;6.574;2022-10-31T08:48:28;20.80;99.90
52295;DHT22;38243;53.212;6.574;2022-10-31T08:50:56;20.80;99.90
52295;DHT22;38243;53.212;6.574;2022-10-31T08:53:22;20.80;99.90
52295;DHT22;38243;53.212;6.574;2022-10-31T08:55:48;20.90;99.90
52295;DHT22;38243;53.212;6.574;2022-10-31T08:58:14;20.80;99.90
52295;DHT22;38243;53.212;6.574;2022-10-31T09:00:41;20.90;99.90
52295;DHT22;38243;53.212;6.574;2022-10-31T09:03:09;20.80;99.90
52295;DHT22;38243;53.212;6.574;2022-10-31T09:05:35;20.90;99.90
52295;DHT22;38243;53.212;6.574;2022-10-31T09:08:02;20.90;99.90
52295;DHT22;38243;53.212;6.574;2022-10-31T09:10:28;20.90;99.90
52295;DHT22;38243;53.212;6.574;2022-10-31T09:12:58;20.90;99.90
52295;DHT22;38243;53.212;6.574;2022-10-31T09:15:24;20.90;99.90
52295;DHT22;38243;53.212;6.574;2022-10-31T09:17:50;20.90;99.90
52295;DHT22;38243;53.212;6.574;2022-10-31T09:20:15;20.90;99.90
52295;DHT22;38243;53.212;6.574;2022-10-31T09:22:41;20.90;99.90
52295;DHT22;38243;53.212;6.574;2022-10-31T09:25:07;20.90;99.90
52295;DHT22;38243;53.212;6.574;2022-10-31T09:27:33;20.90;99.90
52295;DHT22;38243;53.212;6.574;2022-10-31T09:29:58;20.90;99.90
52295;DHT22;38243;53.212;6.574;2022-10-31T09:32:24;20.90;99.90
52295;DHT22;38243;53.212;6.574;2022-10-31T09:34:49;20.90;99.90
52295;DHT22;38243;53.212;6.574;2022-10-31T09:37:15;20.90;99.90
52295;DHT22;38243;53.212;6.574;2022-10-31T09:39:41;20.90;99.90
52295;DHT22;38243;53.212;6.574;2022-10-31T09:44:44;21.00;99.90
52295;DHT22;38243;53.212;6.574;2022-10-31T09:47:29;20.90;99.90
52295;DHT22;38243;53.212;6.574;2022-10-31T09:50:12;21.00;99.90
52295;DHT22;38243;53.212;6.574;2022-10-31T09:52:41;21.00;99.90
52295;DHT22;38243;53.212;6.574;2022-10-31T09:55:12;21.00;99.90
52295;DHT22;38243;53.212;6.574;2022-10-31T09:57:39;21.00;99.90
52295;DHT22;38243;53.212;6.574;2022-10-31T10:00:06;21.10;99.90
52295;DHT22;38243;53.212;6.574;2022-10-31T10:02:49;21.10;99.90
52295;DHT22;38243;53.212;6.574;2022-10-31T10:05:21;21.10;99.90
52295;DHT22;38243;53.212;6.574;2022-10-31T10:15:24;21.10;99.90
52295;DHT22;38243;53.212;6.574;2022-10-31T10:23:35;21.20;99.90
52295;DHT22;38243;53.212;6.574;2022-10-31T10:26:18;21.10;99.90
52295;DHT22;38243;53.212;6.574;2022-10-31T10:28:47;21.10;99.90
52295;DHT22;38243;53.212;6.574;2022-10-31T10:31:18;21.10;99.90
52295;DHT22;38243;53.212;6.574;2022-10-31T10:36:21;21.10;99.90
52295;DHT22;38243;53.212;6.574;2022-10-31T10:38:56;21.10;99.90
52295;DHT22;38243;53.212;6.574;2022-10-31T10:41:24;21.10;99.90
52295;DHT22;38243;53.212;6.574;2022-10-31T10:43:53;21.10;99.90
52295;DHT22;38243;53.212;6.574;2022-10-31T10:46:21;21.10;99.90
52295;DHT22;38243;53.212;6.574;2022-10-31T10:51:54;21.10;99.90
52295;DHT22;38243;53.212;6.574;2022-10-31T10:59:27;21.10;99.90
52295;DHT22;38243;53.212;6.574;2022-10-31T11:01:53;21.10;99.90
52295;DHT22;38243;53.212;6.574;2022-10-31T11:04:28;21.10;99.90
52295;DHT22;38243;53.212;6.574;2022-10-31T11:06:59;21.10;99.90
52295;DHT22;38243;53.212;6.574;2022-10-31T11:09:24;21.10;99.90
52295;DHT22;38243;53.212;6.574;2022-10-31T11:11:50;21.10;99.90
52295;DHT22;38243;53.212;6.574;2022-10-31T11:14:16;21.10;99.90
52295;DHT22;38243;53.212;6.574;2022-10-31T11:16:43;21.10;99.90
52295;DHT22;38243;53.212;6.574;2022-10-31T11:21:41;21.10;99.90
52295;DHT22;38243;53.212;6.574;2022-10-31T11:26:40;21.10;99.90
52295;DHT22;38243;53.212;6.574;2022-10-31T11:29:22;21.10;99.90
52295;DHT22;38243;53.212;6.574;2022-10-31T11:31:51;21.10;99.90
52295;DHT22;38243;53.212;6.574;2022-10-31T11:34:30;21.10;99.90
52295;DHT22;38243;53.212;6.574;2022-10-31T11:36:58;21.10;99.90
52295;DHT22;38243;53.212;6.574;2022-10-31T11:39:26;21.10;99.90
52295;DHT22;38243;53.212;6.574;2022-10-31T11:41:52;21.10;99.90
52295;DHT22;38243;53.212;6.574;2022-10-31T11:44:20;21.10;99.90
52295;DHT22;38243;53.212;6.574;2022-10-31T11:46:51;21.10;99.90
52295;DHT22;38243;53.212;6.574;2022-10-31T11:51:52;21.20;99.90
52295;DHT22;38243;53.212;6.574;2022-10-31T11:54:20;21.10;99.90
52295;DHT22;38243;53.212;6.574;2022-10-31T11:56:47;21.10;99.90
52295;DHT22;38243;53.212;6.574;2022-10-31T11:59:15;21.10;99.90
52295;DHT22;38243;53.212;6.574;2022-10-31T12:01:46;21.10;99.90
52295;DHT22;38243;53.212;6.574;2022-10-31T12:04:12;21.10;99.90
52295;DHT22;38243;53.212;6.574;2022-10-31T12:06:41;21.10;99.90
52295;DHT22;38243;53.212;6.574;2022-10-31T12:19:39;21.10;99.90
52295;DHT22;38243;53.212;6.574;2022-10-31T12:22:18;21.10;99.90
52295;DHT22;38243;53.212;6.574;2022-10-31T12:34:46;21.10;99.90
52295;DHT22;38243;53.212;6.574;2022-10-31T12:37:27;21.10;99.90
52295;DHT22;38243;53.212;6.574;2022-10-31T12:40:05;21.10;99.90
52295;DHT22;38243;53.212;6.574;2022-10-31T12:42:40;21.10;99.90
52295;DHT22;38243;53.212;6.574;2022-10-31T12:58:38;21.10;99.90
52295;DHT22;38243;53.212;6.574;2022-10-31T13:01:27;21.10;99.90
52295;DHT22;38243;53.212;6.574;2022-10-31T13:03:55;21.10;99.90
52295;DHT22;38243;53.212;6.574;2022-10-31T13:06:24;21.10;99.90
52295;DHT22;38243;53.212;6.574;2022-10-31T13:08:52;21.10;99.90
52295;DHT22;38243;53.212;6.574;2022-10-31T13:16:20;21.10;99.90
52295;DHT22;38243;53.212;6.574;2022-10-31T13:18:48;21.10;99.90
52295;DHT22;38243;53.212;6.574;2022-10-31T13:21:19;21.10;99.90
52295;DHT22;38243;53.212;6.574;2022-10-31T13:23:47;21.10;99.90
52295;DHT22;38243;53.212;6.574;2022-10-31T13:26:35;21.10;99.90
52295;DHT22;38243;53.212;6.574;2022-10-31T13:31:27;21.10;99.90
52295;DHT22;38243;53.212;6.574;2022-10-31T13:33:54;21.10;99.90
52295;DHT22;38243;53.212;6.574;2022-10-31T13:39:30;21.10;99.90
52295;DHT22;38243;53.212;6.574;2022-10-31T13:44:25;21.10;99.90
52295;DHT22;38243;53.212;6.574;2022-10-31T13:46:52;21.20;99.90
52295;DHT22;38243;53.212;6.574;2022-10-31T13:54:34;21.10;99.90
52295;DHT22;38243;53.212;6.574;2022-10-31T13:57:00;21.10;99.90
52295;DHT22;38243;53.212;6.574;2022-10-31T13:59:36;21.10;99.90
52295;DHT22;38243;53.212;6.574;2022-10-31T14:02:12;21.10;99.90
52295;DHT22;38243;53.212;6.574;2022-10-31T14:04:48;21.10;99.90
52295;DHT22;38243;53.212;6.574;2022-10-31T14:07:15;21.10;99.90
52295;DHT22;38243;53.212;6.574;2022-10-31T14:10:03;21.10;99.90
52295;DHT22;38243;53.212;6.574;2022-10-31T14:12:35;21.20;99.90
52295;DHT22;38243;53.212;6.574;2022-10-31T14:15:04;21.10;99.90
52295;DHT22;38243;53.212;6.574;2022-10-31T14:17:33;21.10;99.90
52295;DHT22;38243;53.212;6.574;2022-10-31T14:22:37;21.10;99.90
52295;DHT22;38243;53.212;6.574;2022-10-31T14:25:24;21.10;99.90
52295;DHT22;38243;53.212;6.574;2022-10-31T14:27:48;21.10;99.90
52295;DHT22;38243;53.212;6.574;2022-10-31T14:30:14;21.10;99.90
52295;DHT22;38243;53.212;6.574;2022-10-31T14:32:41;21.10;99.90
52295;DHT22;38243;53.212;6.574;2022-10-31T14:35:08;21.10;99.90
52295;DHT22;38243;53.212;6.574;2022-10-31T14:38:00;21.10;99.90
52295;DHT22;38243;53.212;6.574;2022-10-31T14:43:13;21.10;99.90
52295;DHT22;38243;53.212;6.574;2022-10-31T14:50:57;21.10;99.90
52295;DHT22;38243;53.212;6.574;2022-10-31T14:53:34;21.20;99.90
52295;DHT22;38243;53.212;6.574;2022-10-31T14:56:00;21.10;99.90
52295;DHT22;38243;53.212;6.574;2022-10-31T15:00:57;21.10;99.90
52295;DHT22;38243;53.212;6.574;2022-10-31T15:03:31;21.10;99.90
52295;DHT22;38243;53.212;6.574;2022-10-31T15:06:16;21.10;99.90
52295;DHT22;38243;53.212;6.574;2022-10-31T15:08:46;21.20;99.90
52295;DHT22;38243;53.212;6.574;2022-10-31T15:11:13;21.10;99.90
52295;DHT22;38243;53.212;6.574;2022-10-31T15:13:49;21.10;99.90
52295;DHT22;38243;53.212;6.574;2022-10-31T15:16:16;21.10;99.90
52295;DHT22;38243;53.212;6.574;2022-10-31T15:18:51;21.20;99.90
52295;DHT22;38243;53.212;6.574;2022-10-31T15:21:17;21.20;99.90
52295;DHT22;38243;53.212;6.574;2022-10-31T15:23:43;21.10;99.90
52295;DHT22;38243;53.212;6.574;2022-10-31T15:26:17;21.10;99.90
52295;DHT22;38243;53.212;6.574;2022-10-31T15:28:44;21.10;99.90
52295;DHT22;38243;53.212;6.574;2022-10-31T15:31:13;21.20;99.90
52295;DHT22;38243;53.212;6.574;2022-10-31T15:33:41;21.10;99.90
52295;DHT22;38243;53.212;6.574;2022-10-31T15:36:16;21.10;99.90
52295;DHT22;38243;53.212;6.574;2022-10-31T15:38:43;21.10;99.90
52295;DHT22;38243;53.212;6.574;2022-10-31T15:41:19;21.10;99.90
52295;DHT22;38243;53.212;6.574;2022-10-31T15:43:47;21.10;99.90
52295;DHT22;38243;53.212;6.574;2022-10-31T15:46:13;21.10;99.90
52295;DHT22;38243;53.212;6.574;2022-10-31T15:48:38;21.20;99.90
52295;DHT22;38243;53.212;6.574;2022-10-31T15:51:08;21.10;99.90
52295;DHT22;38243;53.212;6.574;2022-10-31T15:53:52;21.10;99.90
52295;DHT22;38243;53.212;6.574;2022-10-31T15:56:26;21.10;99.90
52295;DHT22;38243;53.212;6.574;2022-10-31T15:58:53;21.10;99.90
52295;DHT22;38243;53.212;6.574;2022-10-31T16:03:58;21.20;99.90
52295;DHT22;38243;53.212;6.574;2022-10-31T16:06:24;21.10;99.90
52295;DHT22;38243;53.212;6.574;2022-10-31T16:08:50;21.10;99.90
52295;DHT22;38243;53.212;6.574;2022-10-31T16:11:18;21.10;99.90
52295;DHT22;38243;53.212;6.574;2022-10-31T16:13:58;21.10;99.90
52295;DHT22;38243;53.212;6.574;2022-10-31T16:16:24;21.10;99.90
52295;DHT22;38243;53.212;6.574;2022-10-31T16:18:51;21.20;99.90
52295;DHT22;38243;53.212;6.574;2022-10-31T16:21:24;21.10;99.90
52295;DHT22;38243;53.212;6.574;2022-10-31T16:23:52;21.10;99.90
52295;DHT22;38243;53.212;6.574;2022-10-31T16:26:19;21.10;99.90
52295;DHT22;38243;53.212;6.574;2022-10-31T16:28:51;21.10;99.90
52295;DHT22;38243;53.212;6.574;2022-10-31T16:31:24;21.10;99.90
52295;DHT22;38243;53.212;6.574;2022-10-31T16:33:50;21.10;99.90
52295;DHT22;38243;53.212;6.574;2022-10-31T16:36:30;21.10;99.90
52295;DHT22;38243;53.212;6.574;2022-10-31T16:38:57;21.10;99.90
52295;DHT22;38243;53.212;6.574;2022-10-31T16:41:23;21.10;99.90
52295;DHT22;38243;53.212;6.574;2022-10-31T16:43:49;21.20;99.90
52295;DHT22;38243;53.212;6.574;2022-10-31T16:46:15;21.10;99.90
52295;DHT22;38243;53.212;6.574;2022-10-31T16:48:43;21.20;99.90
52295;DHT22;38243;53.212;6.574;2022-10-31T16:51:08;21.10;99.90
52295;DHT22;38243;53.212;6.574;2022-10-31T16:53:34;21.10;99.90
52295;DHT22;38243;53.212;6.574;2022-10-31T16:56:01;21.10;99.90
52295;DHT22;38243;53.212;6.574;2022-10-31T16:58:28;21.10;99.90
52295;DHT22;38243;53.212;6.574;2022-10-31T17:00:55;21.10;99.90
52295;DHT22;38243;53.212;6.574;2022-10-31T17:03:21;21.10;99.90
52295;DHT22;38243;53.212;6.574;2022-10-31T17:05:46;21.10;99.90
52295;DHT22;38243;53.212;6.574;2022-10-31T17:08:12;21.10;99.90
52295;DHT22;38243;53.212;6.574;2022-10-31T17:10:38;21.10;99.90
52295;DHT22;38243;53.212;6.574;2022-10-31T17:13:05;21.10;99.90
52295;DHT22;38243;53.212;6.574;2022-10-31T17:15:36;21.10;99.90
52295;DHT22;38243;53.212;6.574;2022-10-31T17:18:03;21.10;99.90
52295;DHT22;38243;53.212;6.574;2022-10-31T17:20:29;21.10;99.90
52295;DHT22;38243;53.212;6.574;2022-10-31T17:22:55;21.10;99.90
52295;DHT22;38243;53.212;6.574;2022-10-31T17:25:22;21.10;99.90
52295;DHT22;38243;53.212;6.574;2022-10-31T17:27:48;21.10;99.90
52295;DHT22;38243;53.212;6.574;2022-10-31T17:30:15;21.10;99.90
52295;DHT22;38243;53.212;6.574;2022-10-31T17:32:43;21.00;99.90
52295;DHT22;38243;53.212;6.574;2022-10-31T17:35:09;21.00;99.90
52295;DHT22;38243;53.212;6.574;2022-10-31T17:37:35;21.00;99.90
52295;DHT22;38243;53.212;6.574;2022-10-31T17:40:01;21.00;99.90
52295;DHT22;38243;53.212;6.574;2022-10-31T17:42:27;21.00;99.90
52295;DHT22;38243;53.212;6.574;2022-10-31T17:44:52;21.00;99.90
52295;DHT22;38243;53.212;6.574;2022-10-31T17:47:18;21.10;99.90
52295;DHT22;38243;53.212;6.574;2022-10-31T17:49:43;21.00;99.90